createdAt,value
2018-06-03T00:00:33.763Z,85.86
2018-06-03T00:03:03.765Z,85.64
2018-06-03T00:05:33.727Z,85.29
2018-06-03T00:08:03.878Z,85.55
2018-06-03T00:10:33.860Z,86.25
2018-06-03T00:13:03.906Z,86.68
2018-06-03T00:15:33.896Z,86.32
2018-06-03T00:18:03.885Z,86.52
2018-06-03T00:21:43.812Z,85.93
2018-06-03T00:24:13.916Z,86.51
2018-06-03T00:26:43.925Z,86.62
2018-06-03T00:29:13.960Z,86.31
2018-06-03T00:31:43.968Z,86.29
2018-06-03T00:34:13.979Z,86.87
2018-06-03T00:36:49.306Z,86.84
2018-06-03T00:39:19.299Z,86.89
2018-06-03T00:41:49.298Z,86.89
2018-06-03T00:44:19.280Z,87.20
2018-06-03T00:46:49.246Z,87.46
2018-06-03T00:49:19.248Z,87.44
2018-06-03T00:51:49.216Z,87.01
2018-06-03T00:54:19.251Z,87.47
2018-06-03T00:57:05.890Z,87.41
2018-06-03T00:59:35.861Z,87.42
2018-06-03T01:02:05.843Z,87.61
2018-06-03T01:04:35.873Z,87.26
2018-06-03T01:07:05.860Z,87.41
2018-06-03T01:09:35.841Z,87.08
2018-06-03T01:12:05.826Z,87.03
2018-06-03T01:14:35.831Z,86.98
2018-06-03T01:17:05.813Z,87.34
2018-06-03T01:19:35.791Z,87.19
2018-06-03T01:22:06.397Z,87.34
2018-06-03T01:24:36.386Z,87.26
2018-06-03T01:27:06.387Z,87.49
2018-06-03T01:29:36.388Z,87.80
2018-06-03T01:32:06.401Z,87.58
2018-06-03T01:34:36.393Z,88.02
2018-06-03T01:37:06.520Z,88.09
2018-06-03T01:39:36.518Z,87.99
2018-06-03T01:42:06.535Z,88.19
2018-06-03T01:44:36.514Z,88.21
2018-06-03T01:47:06.521Z,88.67
2018-06-03T01:49:36.537Z,88.44
2018-06-03T01:52:06.540Z,88.29
2018-06-03T01:54:36.601Z,88.00
2018-06-03T01:57:06.884Z,88.12
2018-06-03T01:59:37.237Z,88.03
2018-06-03T02:02:07.258Z,87.69
2018-06-03T02:04:37.239Z,87.50
2018-06-03T02:07:07.238Z,87.18
2018-06-03T02:09:37.251Z,87.10
2018-06-03T02:12:07.287Z,87.06
2018-06-03T02:14:37.330Z,87.32
2018-06-03T02:17:07.623Z,87.69
2018-06-03T02:19:37.659Z,88.08
2018-06-03T02:22:07.696Z,88.27
2018-06-03T02:24:37.706Z,88.48
2018-06-03T02:27:07.733Z,88.48
2018-06-03T02:29:37.316Z,89.11
2018-06-03T02:32:07.409Z,89.30
2018-06-03T02:34:37.391Z,89.58
2018-06-03T02:37:07.424Z,89.13
2018-06-03T02:39:37.380Z,89.05
2018-06-03T02:42:07.414Z,89.17
2018-06-03T02:44:37.390Z,89.39
2018-06-03T02:47:07.440Z,89.59
2018-06-03T02:49:37.396Z,89.59
2018-06-03T02:52:07.564Z,89.83
2018-06-03T02:54:37.552Z,89.96
2018-06-03T02:57:07.581Z,90.05
2018-06-03T02:59:37.551Z,90.49
2018-06-03T03:02:07.611Z,90.33
2018-06-03T03:04:37.571Z,90.29
2018-06-03T03:07:07.558Z,90.20
2018-06-03T03:09:37.548Z,90.13
2018-06-03T03:12:07.623Z,90.01
2018-06-03T03:14:37.615Z,89.93
2018-06-03T03:17:07.642Z,89.51
2018-06-03T03:19:37.632Z,89.61
2018-06-03T03:22:07.719Z,89.15
2018-06-03T03:24:37.703Z,89.42
2018-06-03T03:27:07.755Z,89.38
2018-06-03T03:29:37.749Z,89.51
2018-06-03T03:32:07.803Z,89.54
2018-06-03T03:34:37.800Z,89.72
2018-06-03T03:37:07.851Z,89.97
2018-06-03T03:39:38.132Z,89.87
2018-06-03T03:42:08.177Z,89.71
2018-06-03T03:44:38.175Z,89.75
2018-06-03T03:47:08.219Z,89.99
2018-06-03T03:49:38.240Z,90.13
2018-06-03T03:52:08.311Z,90.31
2018-06-03T03:54:38.316Z,90.62
2018-06-03T03:57:08.345Z,90.55
2018-06-03T03:59:38.384Z,90.46
2018-06-03T04:02:08.363Z,90.75
2018-06-03T04:04:38.376Z,90.61
2018-06-03T04:07:08.381Z,90.63
2018-06-03T04:09:38.371Z,90.80
2018-06-03T04:12:08.400Z,91.19
2018-06-03T04:14:38.432Z,91.31
2018-06-03T04:17:08.488Z,91.25
2018-06-03T04:19:38.539Z,91.56
2018-06-03T04:22:08.507Z,91.73
2018-06-03T04:24:38.499Z,91.57
2018-06-03T04:27:08.444Z,91.73
2018-06-03T04:29:38.479Z,91.88
2018-06-03T04:32:08.465Z,92.38
2018-06-03T04:34:38.471Z,92.95
2018-06-03T04:37:08.433Z,93.02
2018-06-03T04:39:38.461Z,93.32
2018-06-03T04:42:08.424Z,93.19
2018-06-03T04:44:38.422Z,93.30
2018-06-03T04:47:08.700Z,93.00
2018-06-03T04:49:39.093Z,92.57
2018-06-03T04:52:09.163Z,92.28
2018-06-03T04:54:39.206Z,91.76
2018-06-03T04:57:09.292Z,91.77
2018-06-03T04:59:39.418Z,91.61
2018-06-03T05:02:09.437Z,91.49
2018-06-03T05:04:39.462Z,91.42
2018-06-03T05:07:09.504Z,91.21
2018-06-03T05:09:39.536Z,90.78
2018-06-03T05:12:09.510Z,90.01
2018-06-03T05:14:39.494Z,90.03
2018-06-03T05:17:09.459Z,89.73
2018-06-03T05:19:39.465Z,89.21
2018-06-03T05:22:09.432Z,88.96
2018-06-03T05:24:39.458Z,88.35
2018-06-03T05:27:09.419Z,88.56
2018-06-03T05:29:39.495Z,87.84
2018-06-03T05:32:09.914Z,87.72
2018-06-03T05:34:39.914Z,87.19
2018-06-03T05:37:09.880Z,87.04
2018-06-03T05:39:39.856Z,87.41
2018-06-03T05:42:09.868Z,87.77
2018-06-03T05:44:39.870Z,87.45
2018-06-03T05:47:09.831Z,87.55
2018-06-03T05:49:39.814Z,86.59
2018-06-03T05:52:09.766Z,83.96
2018-06-03T05:54:39.809Z,83.08
2018-06-03T05:57:09.816Z,80.12
2018-06-03T05:59:39.813Z,78.82
2018-06-03T06:02:09.789Z,79.06
2018-06-03T06:04:39.797Z,78.97
2018-06-03T06:07:09.787Z,78.56
2018-06-03T06:09:39.765Z,75.57
2018-06-03T06:12:09.742Z,72.15
2018-06-03T06:14:39.721Z,68.89
2018-06-03T06:17:09.723Z,70.92
2018-06-03T06:19:39.760Z,68.22
2018-06-03T06:22:09.350Z,70.52
2018-06-03T06:24:39.348Z,70.43
2018-06-03T06:27:09.339Z,71.32
2018-06-03T06:29:39.302Z,67.57
2018-06-03T06:32:09.303Z,68.71
2018-06-03T06:34:39.312Z,69.66
2018-06-03T06:37:09.314Z,70.42
2018-06-03T06:39:39.303Z,66.74
2018-06-03T06:42:09.304Z,66.56
2018-06-03T06:44:39.289Z,67.62
2018-06-03T06:47:09.296Z,67.26
2018-06-03T06:49:39.272Z,64.97
2018-06-03T06:52:09.755Z,66.54
2018-06-03T06:54:39.793Z,66.66
2018-06-03T06:57:09.796Z,65.45
2018-06-03T06:59:39.789Z,64.84
2018-06-03T07:02:09.826Z,65.44
2018-06-03T07:04:39.808Z,66.41
2018-06-03T07:07:09.806Z,64.13
2018-06-03T07:09:39.737Z,66.67
2018-06-03T07:12:09.713Z,64.79
2018-06-03T07:14:39.657Z,67.29
2018-06-03T07:17:09.644Z,68.38
2018-06-03T07:19:39.598Z,67.91
2018-06-03T07:22:09.578Z,65.28
2018-06-03T07:24:39.532Z,64.97
2018-06-03T07:27:09.560Z,66.27
2018-06-03T07:29:39.517Z,67.05
2018-06-03T07:32:10.118Z,70.42
2018-06-03T07:34:40.107Z,68.61
2018-06-03T07:37:10.097Z,65.56
2018-06-03T07:39:40.047Z,63.93
2018-06-03T07:42:10.086Z,67.61
2018-06-03T07:44:40.061Z,69.22
2018-06-03T07:47:10.027Z,67.40
2018-06-03T07:49:40.043Z,63.24
2018-06-03T07:52:10.059Z,64.66
2018-06-03T07:54:40.082Z,64.44
2018-06-03T07:57:10.068Z,60.55
2018-06-03T07:59:40.024Z,57.76
2018-06-03T08:02:10.003Z,59.75
2018-06-03T08:04:39.972Z,59.82
2018-06-03T08:07:09.978Z,59.97
2018-06-03T08:09:39.924Z,59.81
2018-06-03T08:12:09.932Z,57.86
2018-06-03T08:14:39.903Z,57.77
2018-06-03T08:17:09.912Z,57.59
2018-06-03T08:19:39.921Z,57.26
2018-06-03T08:22:09.924Z,57.44
2018-06-03T08:24:39.858Z,55.20
2018-06-03T08:27:09.891Z,59.41
2018-06-03T08:29:39.891Z,55.77
2018-06-03T08:32:09.910Z,56.45
2018-06-03T08:34:39.870Z,58.72
2018-06-03T08:37:09.872Z,59.18
2018-06-03T08:39:39.856Z,61.80
2018-06-03T08:42:09.888Z,59.09
2018-06-03T08:44:39.863Z,55.92
2018-06-03T08:47:09.873Z,56.61
2018-06-03T08:49:39.887Z,59.85
2018-06-03T08:52:10.081Z,57.25
2018-06-03T08:54:40.097Z,53.63
2018-06-03T08:57:10.078Z,60.47
2018-06-03T08:59:40.124Z,58.44
2018-06-03T09:02:10.126Z,61.98
2018-06-03T09:04:40.165Z,61.01
2018-06-03T09:07:10.139Z,54.74
2018-06-03T09:09:40.141Z,61.18
2018-06-03T09:12:10.138Z,56.66
2018-06-03T09:14:40.159Z,57.57
2018-06-03T09:17:10.119Z,59.32
2018-06-03T09:19:40.113Z,56.47
2018-06-03T09:22:10.035Z,53.52
2018-06-03T09:24:40.012Z,56.28
2018-06-03T09:27:10.000Z,54.68
2018-06-03T09:29:40.007Z,58.52
2018-06-03T09:32:09.967Z,54.14
2018-06-03T09:34:40.014Z,58.08
2018-06-03T09:37:10.012Z,51.45
2018-06-03T09:39:40.011Z,52.62
2018-06-03T09:42:10.031Z,56.33
2018-06-03T09:44:40.035Z,56.86
2018-06-03T09:47:10.271Z,51.47
2018-06-03T09:49:40.284Z,53.77
2018-06-03T09:52:10.343Z,52.13
2018-06-03T09:54:40.353Z,52.49
2018-06-03T09:57:10.308Z,55.35
2018-06-03T09:59:40.382Z,51.83
2018-06-03T10:02:10.368Z,53.91
2018-06-03T10:04:40.379Z,54.29
2018-06-03T10:07:10.353Z,53.72
2018-06-03T10:09:40.455Z,50.70
2018-06-03T10:12:10.456Z,53.15
2018-06-03T10:14:40.466Z,51.47
2018-06-03T10:17:10.418Z,52.42
2018-06-03T10:19:40.467Z,56.97
2018-06-03T10:22:10.528Z,53.24
2018-06-03T10:24:40.199Z,56.22
2018-06-03T10:27:10.190Z,51.42
2018-06-03T10:29:40.327Z,56.20
2018-06-03T10:32:10.371Z,54.24
2018-06-03T10:34:40.401Z,51.98
2018-06-03T10:37:10.497Z,56.40
2018-06-03T10:39:40.589Z,58.18
2018-06-03T10:42:10.563Z,48.80
2018-06-03T10:44:40.564Z,54.00
2018-06-03T10:47:10.578Z,51.31
2018-06-03T10:49:40.656Z,50.06
2018-06-03T10:52:10.611Z,47.82
2018-06-03T10:54:40.656Z,50.00
2018-06-03T10:57:11.574Z,49.44
2018-06-03T10:59:41.616Z,48.89
2018-06-03T11:02:11.630Z,47.12
2018-06-03T11:04:41.610Z,51.87
2018-06-03T11:07:12.350Z,53.78
2018-06-03T11:09:42.348Z,48.57
2018-06-03T11:12:12.321Z,48.15
2018-06-03T11:14:42.727Z,46.05
2018-06-03T11:17:12.770Z,50.67
2018-06-03T11:19:43.363Z,51.30
2018-06-03T11:22:13.304Z,48.45
2018-06-03T11:24:43.313Z,51.06
2018-06-03T11:27:13.297Z,48.39
2018-06-03T11:29:43.390Z,47.52
2018-06-03T11:32:13.348Z,46.77
2018-06-03T11:34:43.354Z,50.81
2018-06-03T11:37:13.382Z,48.45
2018-06-03T11:39:43.520Z,48.05
2018-06-03T11:42:13.759Z,47.24
2018-06-03T11:44:44.238Z,46.32
2018-06-03T11:47:14.414Z,45.46
2018-06-03T11:49:44.487Z,48.23
2018-06-03T11:52:14.507Z,50.34
2018-06-03T11:54:44.668Z,47.89
2018-06-03T11:57:14.860Z,47.73
2018-06-03T11:59:45.541Z,48.27
2018-06-03T12:02:17.380Z,53.11
2018-06-03T12:04:47.496Z,51.53
2018-06-03T12:07:17.547Z,51.36
2018-06-03T12:09:47.131Z,52.29
2018-06-03T12:12:17.150Z,47.95
2018-06-03T12:14:47.880Z,49.56
2018-06-03T12:17:17.908Z,46.38
2018-06-03T12:19:47.897Z,50.07
2018-06-03T12:22:17.940Z,50.26
2018-06-03T12:24:47.906Z,49.18
2018-06-03T12:27:17.973Z,50.05
2018-06-03T12:29:47.942Z,54.78
2018-06-03T12:32:18.055Z,49.08
2018-06-03T12:34:48.008Z,51.17
2018-06-03T12:37:18.030Z,51.34
2018-06-03T12:39:48.025Z,50.02
2018-06-03T12:42:18.104Z,50.56
2018-06-03T12:44:48.070Z,52.21
2018-06-03T12:47:18.127Z,51.19
2018-06-03T12:49:48.120Z,48.92
2018-06-03T12:52:18.191Z,49.90
2018-06-03T12:54:48.197Z,49.81
2018-06-03T12:57:18.205Z,52.05
2018-06-03T12:59:48.178Z,50.58
2018-06-03T13:02:18.384Z,49.63
2018-06-03T13:04:48.345Z,48.87
2018-06-03T13:07:18.444Z,49.69
2018-06-03T13:09:48.400Z,49.71
2018-06-03T13:12:18.444Z,49.06
2018-06-03T13:14:48.452Z,49.66
2018-06-03T13:17:18.535Z,50.42
2018-06-03T13:19:48.517Z,44.48
2018-06-03T13:22:18.568Z,42.45
2018-06-03T13:24:48.555Z,44.15
2018-06-03T13:27:18.621Z,39.46
2018-06-03T13:29:48.630Z,42.06
2018-06-03T13:32:18.779Z,42.54
2018-06-03T13:34:48.759Z,41.73
2018-06-03T13:37:18.790Z,46.65
2018-06-03T13:39:48.750Z,47.18
2018-06-03T13:42:18.860Z,49.75
2018-06-03T13:44:48.851Z,45.67
2018-06-03T13:47:18.960Z,46.75
2018-06-03T13:49:48.927Z,45.84
2018-06-03T13:52:19.008Z,47.16
2018-06-03T13:54:49.079Z,44.69
2018-06-03T13:57:19.162Z,44.83
2018-06-03T13:59:49.156Z,44.96
2018-06-03T14:02:19.265Z,44.74
2018-06-03T14:04:49.243Z,45.22
2018-06-03T14:07:19.283Z,42.50
2018-06-03T14:09:49.357Z,45.71
2018-06-03T14:12:19.449Z,46.95
2018-06-03T14:14:49.457Z,46.70
2018-06-03T14:17:19.587Z,46.25
2018-06-03T14:19:49.603Z,47.12
2018-06-03T14:22:19.691Z,49.89
2018-06-03T14:24:49.738Z,47.04
2018-06-03T14:27:19.772Z,48.18
2018-06-03T14:29:49.808Z,43.34
2018-06-03T14:32:19.895Z,41.20
2018-06-03T14:34:49.936Z,41.80
2018-06-03T14:37:19.973Z,42.66
2018-06-03T14:39:50.000Z,42.05
2018-06-03T14:42:20.055Z,41.67
2018-06-03T14:44:50.053Z,40.41
2018-06-03T14:47:20.117Z,40.80
2018-06-03T14:49:50.119Z,43.66
2018-06-03T14:52:20.147Z,47.13
2018-06-03T14:54:50.236Z,44.05
2018-06-03T14:57:20.309Z,43.67
2018-06-03T14:59:50.250Z,50.39
2018-06-03T15:02:20.364Z,45.53
2018-06-03T15:04:50.402Z,44.69
2018-06-03T15:07:20.423Z,45.27
2018-06-03T15:09:50.413Z,43.98
2018-06-03T15:12:20.542Z,41.78
2018-06-03T15:14:50.534Z,44.54
2018-06-03T15:17:20.575Z,45.17
2018-06-03T15:19:50.538Z,41.93
2018-06-03T15:22:20.555Z,42.43
2018-06-03T15:24:50.599Z,43.03
2018-06-03T15:27:20.678Z,42.34
2018-06-03T15:29:50.694Z,41.58
2018-06-03T15:32:20.802Z,43.07
2018-06-03T15:34:50.787Z,43.75
2018-06-03T15:37:20.915Z,43.23
2018-06-03T15:39:50.903Z,45.61
2018-06-03T15:42:20.879Z,40.98
2018-06-03T15:44:50.854Z,42.31
2018-06-03T15:47:20.866Z,43.73
2018-06-03T15:49:50.864Z,43.71
2018-06-03T15:52:20.820Z,41.99
2018-06-03T15:54:50.868Z,41.85
2018-06-03T15:57:20.898Z,41.69
2018-06-03T15:59:50.915Z,41.49
2018-06-03T16:02:20.933Z,40.67
2018-06-03T16:04:50.902Z,40.40
2018-06-03T16:07:20.911Z,39.62
2018-06-03T16:09:50.936Z,41.11
2018-06-03T16:12:21.191Z,42.02
2018-06-03T16:14:51.256Z,42.11
2018-06-03T16:17:21.367Z,40.50
2018-06-03T16:19:51.340Z,43.07
2018-06-03T16:22:21.434Z,40.27
2018-06-03T16:24:51.418Z,40.39
2018-06-03T16:27:21.467Z,39.98
2018-06-03T16:29:51.526Z,41.34
2018-06-03T16:32:21.850Z,41.08
2018-06-03T16:34:51.869Z,42.74
2018-06-03T16:37:22.040Z,42.27
2018-06-03T16:39:52.032Z,42.72
2018-06-03T16:42:22.197Z,41.84
2018-06-03T16:44:52.273Z,42.45
2018-06-03T16:47:22.512Z,41.67
2018-06-03T16:49:52.702Z,42.00
2018-06-03T16:52:22.781Z,43.63
2018-06-03T16:54:52.826Z,43.94
2018-06-03T16:57:22.937Z,44.21
2018-06-03T16:59:52.943Z,43.97
2018-06-03T17:02:23.102Z,43.58
2018-06-03T17:04:53.081Z,43.66
2018-06-03T17:07:23.223Z,44.30
2018-06-03T17:09:53.234Z,44.31
2018-06-03T17:12:23.692Z,44.62
2018-06-03T17:14:53.673Z,45.38
2018-06-03T17:17:23.873Z,46.84
2018-06-03T17:19:53.830Z,46.57
2018-06-03T17:22:23.974Z,47.28
2018-06-03T17:24:53.952Z,48.14
2018-06-03T17:27:24.858Z,48.34
2018-06-03T17:29:54.803Z,49.00
2018-06-03T17:32:25.129Z,49.22
2018-06-03T17:34:55.111Z,49.91
2018-06-03T17:37:25.245Z,50.02
2018-06-03T17:39:55.218Z,49.92
2018-06-03T17:42:24.956Z,49.92
2018-06-03T17:44:54.894Z,49.84
2018-06-03T17:47:25.076Z,50.45
2018-06-03T17:49:54.624Z,50.01
2018-06-03T17:52:25.078Z,51.44
2018-06-03T17:54:55.076Z,50.14
2018-06-03T17:57:25.192Z,49.94
2018-06-03T17:59:55.143Z,48.59
2018-06-03T18:02:25.270Z,48.28
2018-06-03T18:04:55.240Z,49.00
2018-06-03T18:07:25.356Z,49.59
2018-06-03T18:09:56.283Z,49.49
2018-06-03T18:12:26.556Z,50.18
2018-06-03T18:14:56.548Z,49.77
2018-06-03T18:17:26.886Z,50.18
2018-06-03T18:19:56.926Z,50.08
2018-06-03T18:22:27.011Z,50.54
2018-06-03T18:24:57.022Z,50.43
2018-06-03T18:27:27.144Z,50.22
2018-06-03T18:29:56.708Z,51.00
2018-06-03T18:32:26.765Z,50.99
2018-06-03T18:34:56.715Z,50.93
2018-06-03T18:37:26.838Z,51.68
2018-06-03T18:39:56.795Z,51.79
2018-06-03T18:42:26.863Z,51.37
2018-06-03T18:44:56.830Z,51.69
2018-06-03T18:47:26.947Z,52.18
2018-06-03T18:49:56.909Z,52.28
2018-06-03T18:52:26.932Z,52.57
2018-06-03T18:54:56.941Z,52.59
2018-06-03T18:57:27.269Z,52.34
2018-06-03T18:59:57.250Z,52.45
2018-06-03T19:02:27.282Z,53.08
2018-06-03T19:04:57.254Z,53.51
2018-06-03T19:07:27.352Z,52.21
2018-06-03T19:09:57.327Z,54.27
2018-06-03T19:12:27.376Z,53.96
2018-06-03T19:14:57.340Z,54.16
2018-06-03T19:17:27.496Z,53.92
2018-06-03T19:19:57.467Z,54.87
2018-06-03T19:22:27.515Z,54.30
2018-06-03T19:24:57.536Z,54.90
2018-06-03T19:27:27.576Z,55.03
2018-06-03T19:29:57.591Z,55.11
2018-06-03T19:32:27.626Z,55.39
2018-06-03T19:34:57.650Z,54.88
2018-06-03T19:37:27.607Z,55.69
2018-06-03T19:39:57.562Z,55.46
2018-06-03T19:42:27.621Z,56.16
2018-06-03T19:44:57.599Z,55.96
2018-06-03T19:47:27.703Z,56.07
2018-06-03T19:49:57.697Z,55.93
2018-06-03T19:52:27.821Z,55.92
2018-06-03T19:54:57.829Z,56.29
2018-06-03T19:57:27.890Z,56.52
2018-06-03T19:59:58.102Z,56.06
2018-06-03T20:02:28.263Z,56.80
2018-06-03T20:04:58.203Z,56.93
2018-06-03T20:07:28.270Z,56.83
2018-06-03T20:09:58.223Z,57.74
2018-06-03T20:12:28.242Z,57.98
2018-06-03T20:14:58.318Z,58.73
2018-06-03T20:17:28.589Z,58.89
2018-06-03T20:19:58.546Z,59.33
2018-06-03T20:22:28.614Z,59.97
2018-06-03T20:24:58.692Z,60.07
2018-06-03T20:27:28.907Z,61.37
2018-06-03T20:29:58.929Z,61.03
2018-06-03T20:32:29.094Z,62.28
2018-06-03T20:34:58.649Z,62.61
2018-06-03T20:37:28.829Z,62.88
2018-06-03T20:39:58.812Z,63.67
2018-06-03T20:42:28.928Z,63.57
2018-06-03T20:44:58.881Z,63.67
2018-06-03T20:47:28.955Z,64.25
2018-06-03T20:50:01.162Z,64.10
2018-06-03T20:52:31.610Z,64.44
2018-06-03T20:55:01.575Z,64.40
2018-06-03T20:57:31.708Z,64.81
2018-06-03T21:00:01.721Z,65.13
2018-06-03T21:02:32.005Z,65.35
2018-06-03T21:05:01.962Z,65.59
2018-06-03T21:07:32.047Z,65.37
2018-06-03T21:10:02.038Z,66.69
2018-06-03T21:12:32.086Z,66.71
2018-06-03T21:15:02.061Z,67.24
2018-06-03T21:17:32.899Z,67.96
2018-06-03T21:20:02.887Z,67.58
2018-06-03T21:22:32.935Z,68.10
2018-06-03T21:25:02.914Z,67.95
2018-06-03T21:27:33.975Z,68.23
2018-06-03T21:30:04.056Z,69.19
2018-06-03T21:32:34.207Z,69.11
2018-06-03T21:35:04.304Z,68.99
2018-06-03T21:37:34.435Z,68.89
2018-06-03T21:40:04.487Z,69.68
2018-06-03T21:42:34.967Z,69.87
2018-06-03T21:45:05.200Z,69.52
2018-06-03T21:47:35.478Z,70.14
2018-06-03T21:50:05.558Z,70.88
2018-06-03T21:52:35.704Z,70.83
2018-06-03T21:55:05.762Z,71.37
2018-06-03T21:57:35.839Z,71.45
2018-06-03T22:00:07.738Z,71.88
2018-06-03T22:02:37.745Z,71.97
2018-06-03T22:05:07.717Z,72.15
2018-06-03T22:07:37.814Z,71.43
2018-06-03T22:10:07.817Z,71.61
2018-06-03T22:12:37.790Z,72.04
2018-06-03T22:15:07.751Z,72.00
2018-06-03T22:17:37.779Z,71.91
2018-06-03T22:20:07.824Z,72.48
2018-06-03T22:22:38.459Z,72.63
2018-06-03T22:25:08.509Z,73.29
2018-06-03T22:27:38.507Z,72.99
2018-06-03T22:30:08.587Z,73.52
2018-06-03T22:32:38.509Z,73.89
2018-06-03T22:35:08.580Z,73.96
2018-06-03T22:37:39.566Z,73.57
2018-06-03T22:40:09.637Z,74.15
2018-06-03T22:42:39.652Z,73.53
2018-06-03T22:45:09.669Z,73.67
2018-06-03T22:47:39.664Z,74.55
2018-06-03T22:50:09.751Z,74.60
2018-06-03T22:52:39.724Z,74.89
2018-06-03T22:55:09.730Z,74.65
2018-06-03T22:57:51.387Z,74.39
2018-06-03T23:00:33.036Z,75.33
2018-06-03T23:03:08.098Z,75.08
2018-06-03T23:05:38.157Z,75.09
2018-06-03T23:08:08.238Z,74.68
2018-06-03T23:10:38.957Z,75.16
2018-06-03T23:13:08.977Z,75.06
2018-06-03T23:15:38.965Z,75.81
2018-06-03T23:18:08.959Z,75.64
2018-06-03T23:20:38.972Z,75.41
2018-06-03T23:23:08.960Z,75.81
2018-06-03T23:25:38.904Z,75.41
2018-06-03T23:28:08.890Z,75.72
2018-06-03T23:30:38.847Z,76.42
2018-06-03T23:33:08.840Z,76.33
2018-06-03T23:35:38.835Z,76.48
2018-06-03T23:38:09.024Z,76.71
2018-06-03T23:40:39.023Z,77.06
2018-06-03T23:43:09.017Z,76.78
2018-06-03T23:45:39.036Z,76.75
2018-06-03T23:48:09.095Z,77.25
2018-06-03T23:50:39.093Z,76.82
2018-06-03T23:53:09.160Z,76.72
2018-06-03T23:55:39.115Z,76.32
2018-06-03T23:58:09.128Z,76.19
